Time;durP1;ratioP1;P1;durP2;ratioP2;P2;SDS_P1;SDS_P2;PMS_P1;PMS_P2;Temp;Humidity;BMP_temperature;BMP_pressure;BME280_temperature;BME280_humidity;BME280_pressure;Samples;Min_cycle;Max_cycle;Signal;HPM_P1;HPM_P2
2023/03/28 00:01:32;;;;;;;1.38;0.88;;;;;;;;;;5034241;28;20036;-75
2023/03/28 00:03:57;;;;;;;0.85;0.65;;;;;;;;;;5033298;28;20028;-76
2023/03/28 00:06:25;;;;;;;1.83;0.70;;;;;;;;;;5033880;28;20025;-75
2023/03/28 00:08:50;;;;;;;2.25;0.75;;;;;;;;;;5033818;28;20401;-75
2023/03/28 00:11:18;;;;;;;3.08;0.80;;;;;;;;;;5033860;28;20033;-75
2023/03/28 00:13:48;;;;;;;3.92;0.75;;;;;;;;;;5033736;28;20108;-75
2023/03/28 00:16:14;;;;;;;3.05;0.60;;;;;;;;;;5033765;28;20583;-75
2023/03/28 00:18:41;;;;;;;1.92;0.60;;;;;;;;;;5033800;28;20045;-75
2023/03/28 00:21:22;;;;;;;2.47;0.73;;;;;;;;;;5032313;28;20022;-75
2023/03/28 00:23:51;;;;;;;1.77;0.57;;;;;;;;;;5033874;28;20029;-75
2023/03/28 00:26:16;;;;;;;5.32;0.70;;;;;;;;;;5032269;28;20080;-75
2023/03/28 00:28:44;;;;;;;1.38;0.60;;;;;;;;;;5033327;28;20026;-75
2023/03/28 00:31:11;;;;;;;1.00;0.43;;;;;;;;;;5032480;28;20036;-75
2023/03/28 00:33:36;;;;;;;3.67;1.02;;;;;;;;;;5033437;28;20030;-75
2023/03/28 00:36:02;;;;;;;2.03;0.82;;;;;;;;;;5033610;28;20033;-75
2023/03/28 00:38:27;;;;;;;1.65;0.80;;;;;;;;;;5033261;28;20477;-75
2023/03/28 00:40:56;;;;;;;2.55;0.80;;;;;;;;;;5033277;28;20436;-75
2023/03/28 00:43:36;;;;;;;1.92;0.85;;;;;;;;;;5031908;28;20021;-75
2023/03/28 00:46:02;;;;;;;3.22;0.60;;;;;;;;;;5033069;28;20029;-76
2023/03/28 00:48:28;;;;;;;1.83;0.70;;;;;;;;;;5033086;28;20026;-75
2023/03/28 00:51:02;;;;;;;11.40;1.00;;;;;;;;;;5031984;28;20021;-75
2023/03/28 00:53:28;;;;;;;0.35;0.28;;;;;;;;;;5032020;28;20496;-75
2023/03/28 00:56:01;;;;;;;4.72;0.90;;;;;;;;;;5033097;28;20060;-75
2023/03/28 00:58:30;;;;;;;6.07;0.80;;;;;;;;;;5031795;28;20116;-75
2023/03/28 01:00:57;;;;;;;3.58;0.80;;;;;;;;;;5033422;28;20484;-75
2023/03/28 01:03:27;;;;;;;3.95;0.85;;;;;;;;;;5031822;28;20025;-74
2023/03/28 01:05:53;;;;;;;2.30;0.57;;;;;;;;;;5033527;28;20536;-75
2023/03/28 01:08:24;;;;;;;2.22;0.47;;;;;;;;;;5032959;28;20033;-75
2023/03/28 01:10:49;;;;;;;3.22;0.80;;;;;;;;;;5033497;28;20032;-75
2023/03/28 01:13:19;;;;;;;1.45;0.30;;;;;;;;;;5032973;28;20101;-75
2023/03/28 01:15:48;;;;;;;2.70;0.60;;;;;;;;;;5035268;28;20070;-75
2023/03/28 01:18:15;;;;;;;6.47;1.42;;;;;;;;;;5036867;28;20175;-75
2023/03/28 01:21:04;;;;;;;2.83;0.80;;;;;;;;;;5037583;28;20025;-75
2023/03/28 01:23:57;;;;;;;0.55;0.52;;;;;;;;;;5035721;28;20080;-76
2023/03/28 01:26:39;;;;;;;1.13;0.43;;;;;;;;;;5037015;28;20025;-75
2023/03/28 01:29:28;;;;;;;1.77;0.40;;;;;;;;;;5036911;28;20316;-75
2023/03/28 01:32:38;;;;;;;4.22;0.80;;;;;;;;;;5036922;28;20022;-75
2023/03/28 01:35:29;;;;;;;1.20;0.35;;;;;;;;;;5036583;28;20060;-75
2023/03/28 01:38:12;;;;;;;2.65;0.90;;;;;;;;;;5037240;28;20029;-74
2023/03/28 01:40:41;;;;;;;1.50;0.60;;;;;;;;;;5036925;28;20026;-75
2023/03/28 01:43:18;;;;;;;4.13;0.77;;;;;;;;;;5036589;28;20474;-75
2023/03/28 01:46:04;;;;;;;1.83;0.82;;;;;;;;;;5036460;28;20446;-75
2023/03/28 01:48:40;;;;;;;6.30;0.98;;;;;;;;;;5036801;28;20029;-75
2023/03/28 01:51:30;;;;;;;5.50;1.10;;;;;;;;;;5036771;28;20029;-74
2023/03/28 01:54:16;;;;;;;3.20;0.65;;;;;;;;;;5036914;28;20028;-75
2023/03/28 01:56:55;;;;;;;19.02;0.60;;;;;;;;;;5036445;28;20025;-75
2023/03/28 01:59:31;;;;;;;2.58;0.40;;;;;;;;;;5036577;28;20029;-75
2023/03/28 02:02:03;;;;;;;4.78;0.82;;;;;;;;;;5035045;28;20108;-75
2023/03/28 02:04:32;;;;;;;3.55;0.95;;;;;;;;;;5034999;28;20024;-75
2023/03/28 02:06:57;;;;;;;4.25;1.10;;;;;;;;;;5034928;28;20080;-75
2023/03/28 02:09:25;;;;;;;3.95;1.10;;;;;;;;;;5036313;28;20021;-75
2023/03/28 02:11:56;;;;;;;4.38;1.08;;;;;;;;;;5036260;28;20096;-75
2023/03/28 02:14:25;;;;;;;3.58;0.90;;;;;;;;;;5034879;28;20044;-75
2023/03/28 02:16:53;;;;;;;7.65;1.35;;;;;;;;;;5034680;28;20075;-75
2023/03/28 02:19:23;;;;;;;4.53;0.93;;;;;;;;;;5035917;28;20030;-75
2023/03/28 02:21:57;;;;;;;2.50;0.68;;;;;;;;;;5036148;28;20017;-75
2023/03/28 02:24:24;;;;;;;5.18;1.10;;;;;;;;;;5035200;28;20049;-75
2023/03/28 02:26:50;;;;;;;7.30;1.10;;;;;;;;;;5035450;28;20129;-75
2023/03/28 02:29:15;;;;;;;2.92;0.60;;;;;;;;;;5035698;28;20032;-75
2023/03/28 02:31:41;;;;;;;1.20;0.73;;;;;;;;;;5035814;28;20021;-75
2023/03/28 02:34:07;;;;;;;0.90;0.47;;;;;;;;;;5035950;28;20057;-75
2023/03/28 02:36:41;;;;;;;3.85;1.00;;;;;;;;;;5034412;28;20025;-76
2023/03/28 02:39:13;;;;;;;;;;;;;;;;;;5034529;28;20025;-76
2023/03/28 02:41:47;;;;;;;1.65;0.73;;;;;;;;;;5050865;28;19939;-75
2023/03/28 02:44:24;;;;;;;;;;;;;;;;;;5034628;28;20025;-76
2023/03/28 02:47:15;;;;;;;4.82;1.30;;;;;;;;;;5035441;28;19909;-77
2023/03/28 02:49:54;;;;;;;4.32;1.10;;;;;;;;;;5035170;28;20030;-75
2023/03/28 02:53:15;;;;;;;7.60;1.35;;;;;;;;;;5035699;28;20026;-75
2023/03/28 02:56:18;;;;;;;0.57;0.50;;;;;;;;;;5018935;28;20128;-75
2023/03/28 02:58:55;;;;;;;9.70;1.25;;;;;;;;;;5034181;28;20033;-75
2023/03/28 03:01:24;;;;;;;3.33;1.17;;;;;;;;;;5034191;28;20045;-75
2023/03/28 03:03:50;;;;;;;3.03;1.27;;;;;;;;;;5035175;28;20101;-75
2023/03/28 03:06:16;;;;;;;3.63;0.80;;;;;;;;;;5035100;28;20040;-75
2023/03/28 03:08:42;;;;;;;4.28;1.05;;;;;;;;;;5033741;28;20095;-75
2023/03/28 03:11:07;;;;;;;6.80;1.02;;;;;;;;;;5035009;28;20481;-75
2023/03/28 03:13:32;;;;;;;7.03;1.30;;;;;;;;;;5035191;28;20063;-76
2023/03/28 03:15:58;;;;;;;2.47;0.88;;;;;;;;;;5034931;28;20022;-75
2023/03/28 03:18:23;;;;;;;10.35;1.48;;;;;;;;;;5033463;28;20056;-75
2023/03/28 03:20:49;;;;;;;4.55;1.10;;;;;;;;;;5034764;28;20033;-76
2023/03/28 03:23:15;;;;;;;2.17;0.98;;;;;;;;;;5034687;28;20025;-76
2023/03/28 03:25:42;;;;;;;1.70;1.00;;;;;;;;;;5033480;28;20025;-76
2023/03/28 03:28:07;;;;;;;1.90;0.75;;;;;;;;;;5034613;28;20030;-75
2023/03/28 03:30:33;;;;;;;2.92;0.70;;;;;;;;;;5033344;28;20025;-75
2023/03/28 03:32:59;;;;;;;3.03;1.27;;;;;;;;;;5034524;28;20053;-76
2023/03/28 03:35:27;;;;;;;7.93;1.58;;;;;;;;;;5034582;28;20143;-75
2023/03/28 03:37:53;;;;;;;4.25;1.20;;;;;;;;;;5032156;28;20032;-76
2023/03/28 03:40:18;;;;;;;0.70;0.50;;;;;;;;;;5034536;28;20392;-74
2023/03/28 03:42:43;;;;;;;2.58;1.02;;;;;;;;;;5034203;28;20063;-75
2023/03/28 03:45:09;;;;;;;2.25;1.00;;;;;;;;;;5034271;28;20037;-75
2023/03/28 03:47:35;;;;;;;1.75;0.63;;;;;;;;;;5034204;28;20083;-75
2023/03/28 03:50:00;;;;;;;1.08;0.57;;;;;;;;;;5034079;28;20029;-75
2023/03/28 03:52:26;;;;;;;2.47;0.60;;;;;;;;;;5032814;28;20481;-75
2023/03/28 03:54:51;;;;;;;0.85;0.50;;;;;;;;;;5032958;28;20036;-75
2023/03/28 03:57:16;;;;;;;2.17;0.40;;;;;;;;;;5033972;28;20115;-74
2023/03/28 03:59:41;;;;;;;0.85;0.43;;;;;;;;;;5033924;28;20366;-75
2023/03/28 04:02:06;;;;;;;3.00;0.75;;;;;;;;;;5034190;28;20057;-75
2023/03/28 04:04:32;;;;;;;0.98;0.50;;;;;;;;;;5033765;28;20028;-74
2023/03/28 04:06:57;;;;;;;3.65;0.22;;;;;;;;;;5032705;28;20025;-75
2023/03/28 04:09:25;;;;;;;0.45;0.38;;;;;;;;;;5033707;28;20079;-74
2023/03/28 04:11:52;;;;;;;0.35;0.30;;;;;;;;;;5034097;28;20021;-74
2023/03/28 04:14:17;;;;;;;1.88;0.43;;;;;;;;;;5033777;28;20053;-75
2023/03/28 04:16:43;;;;;;;2.00;0.63;;;;;;;;;;5033962;28;20487;-75
2023/03/28 04:19:09;;;;;;;1.15;0.30;;;;;;;;;;5033888;28;20017;-75
2023/03/28 04:21:35;;;;;;;4.47;0.90;;;;;;;;;;5033816;28;20079;-75
2023/03/28 04:24:01;;;;;;;0.93;0.52;;;;;;;;;;5033546;28;20116;-75
2023/03/28 04:26:34;;;;;;;2.78;0.73;;;;;;;;;;5033804;28;20467;-74
2023/03/28 04:29:03;;;;;;;0.65;0.45;;;;;;;;;;5032214;28;20438;-75
2023/03/28 04:31:28;;;;;;;2.22;0.70;;;;;;;;;;5033510;28;20033;-75
2023/03/28 04:33:54;;;;;;;0.88;0.60;;;;;;;;;;5033447;28;20029;-75
2023/03/28 04:36:21;;;;;;;0.38;0.22;;;;;;;;;;5033744;28;20061;-75
2023/03/28 04:38:48;;;;;;;1.10;0.30;;;;;;;;;;5032042;28;20396;-75
2023/03/28 04:41:15;;;;;;;0.93;0.60;;;;;;;;;;5033294;28;20025;-75
2023/03/28 04:43:41;;;;;;;0.75;0.50;;;;;;;;;;5033265;28;20053;-74
2023/03/28 04:46:06;;;;;;;1.65;0.73;;;;;;;;;;5033426;28;20135;-74
2023/03/28 04:48:31;;;;;;;0.73;0.43;;;;;;;;;;5032965;28;20445;-75
2023/03/28 04:50:56;;;;;;;0.22;0.22;;;;;;;;;;5031744;28;20448;-74
2023/03/28 04:53:22;;;;;;;0.93;0.50;;;;;;;;;;5031827;28;20476;-75
2023/03/28 04:55:49;;;;;;;0.80;0.55;;;;;;;;;;5033245;28;20452;-75
2023/03/28 04:58:16;;;;;;;5.75;0.70;;;;;;;;;;5033258;28;20128;-75
2023/03/28 05:00:41;;;;;;;2.72;0.90;;;;;;;;;;5032967;28;20083;-75
2023/03/28 05:03:17;;;;;;;2.17;0.68;;;;;;;;;;5031643;28;20029;-75
2023/03/28 05:05:42;;;;;;;2.13;0.73;;;;;;;;;;5033075;28;20076;-76
2023/03/28 05:08:07;;;;;;;0.50;0.50;;;;;;;;;;5031505;28;20481;-75
2023/03/28 05:10:32;;;;;;;1.88;0.52;;;;;;;;;;5032903;28;20396;-75
2023/03/28 05:12:58;;;;;;;3.88;0.90;;;;;;;;;;5032888;28;20013;-74
2023/03/28 05:15:23;;;;;;;4.57;0.80;;;;;;;;;;5033116;28;20232;-75
2023/03/28 05:17:49;;;;;;;1.73;0.70;;;;;;;;;;5033098;28;20059;-75
2023/03/28 05:20:15;;;;;;;2.35;1.05;;;;;;;;;;5032744;28;20021;-74
2023/03/28 05:22:41;;;;;;;1.67;0.65;;;;;;;;;;5032647;28;20025;-75
2023/03/28 05:25:07;;;;;;;2.53;0.98;;;;;;;;;;5033032;28;20104;-74
2023/03/28 05:27:33;;;;;;;3.92;0.70;;;;;;;;;;5033088;28;20033;-75
2023/03/28 05:29:58;;;;;;;3.03;0.63;;;;;;;;;;5032923;28;20477;-75
2023/03/28 05:32:23;;;;;;;2.15;0.70;;;;;;;;;;5032652;28;20112;-75
2023/03/28 05:34:49;;;;;;;2.72;1.02;;;;;;;;;;5032629;28;20030;-75
2023/03/28 05:37:14;;;;;;;2.00;0.57;;;;;;;;;;5032765;28;20025;-76
2023/03/28 05:39:39;;;;;;;1.63;0.65;;;;;;;;;;5032739;28;20021;-75
2023/03/28 05:42:04;;;;;;;1.55;0.65;;;;;;;;;;5032572;28;20056;-76
2023/03/28 05:44:30;;;;;;;3.88;0.90;;;;;;;;;;5032527;28;20025;-76
2023/03/28 05:46:55;;;;;;;1.83;0.50;;;;;;;;;;5032711;28;20025;-76
2023/03/28 05:49:21;;;;;;;3.33;0.90;;;;;;;;;;5031274;28;20026;-76
2023/03/28 05:51:46;;;;;;;6.68;1.02;;;;;;;;;;5032549;28;20022;-76
2023/03/28 05:54:11;;;;;;;2.20;0.47;;;;;;;;;;5032508;28;20025;-76
2023/03/28 05:56:37;;;;;;;2.10;0.82;;;;;;;;;;5032405;28;20164;-74
2023/03/28 05:59:04;;;;;;;6.60;1.30;;;;;;;;;;5031104;28;20105;-75
2023/03/28 06:01:30;;;;;;;5.47;1.33;;;;;;;;;;5033989;28;20025;-76
2023/03/28 06:03:56;;;;;;;0.20;0.20;;;;;;;;;;5036191;28;20531;-76
2023/03/28 06:06:21;;;;;;;2.22;0.70;;;;;;;;;;5036163;28;20075;-76
2023/03/28 06:08:46;;;;;;;0.40;0.40;;;;;;;;;;5034846;28;20108;-76
2023/03/28 06:11:11;;;;;;;3.08;0.85;;;;;;;;;;5035873;28;20461;-76
2023/03/28 06:13:37;;;;;;;4.85;0.70;;;;;;;;;;5034610;28;20022;-76
2023/03/28 06:16:02;;;;;;;3.80;1.30;;;;;;;;;;5036242;28;20025;-76
2023/03/28 06:18:28;;;;;;;3.42;1.20;;;;;;;;;;5035924;28;20070;-75
2023/03/28 06:20:53;;;;;;;5.43;1.83;;;;;;;;;;5036183;28;20025;-76
2023/03/28 06:23:20;;;;;;;1.77;0.47;;;;;;;;;;5035744;28;20477;-75
2023/03/28 06:25:45;;;;;;;3.65;0.80;;;;;;;;;;5034522;28;20029;-76
2023/03/28 06:28:10;;;;;;;1.27;0.85;;;;;;;;;;5035669;28;20025;-76
2023/03/28 06:30:37;;;;;;;1.27;0.57;;;;;;;;;;5035661;28;20388;-75
2023/03/28 06:33:02;;;;;;;2.67;0.93;;;;;;;;;;5035577;28;20120;-75
2023/03/28 06:35:28;;;;;;;1.02;0.50;;;;;;;;;;5035545;28;20547;-76
2023/03/28 06:37:53;;;;;;;1.02;0.63;;;;;;;;;;5035334;28;20025;-76
2023/03/28 06:40:18;;;;;;;6.00;0.98;;;;;;;;;;5035191;28;20037;-76
2023/03/28 06:42:43;;;;;;;2.13;0.65;;;;;;;;;;5035879;28;20052;-76
2023/03/28 06:45:09;;;;;;;4.75;1.25;;;;;;;;;;5035587;28;20033;-75
2023/03/28 06:47:34;;;;;;;0.43;0.32;;;;;;;;;;5034028;28;20022;-75
2023/03/28 06:50:00;;;;;;;2.20;1.00;;;;;;;;;;5035371;28;20542;-76
2023/03/28 06:52:25;;;;;;;1.58;0.60;;;;;;;;;;5035277;28;20472;-76
2023/03/28 06:54:50;;;;;;;3.67;1.10;;;;;;;;;;5035170;28;20029;-74
2023/03/28 06:57:15;;;;;;;0.50;0.40;;;;;;;;;;5035067;28;20453;-74
2023/03/28 06:59:41;;;;;;;1.58;0.90;;;;;;;;;;5033809;28;20038;-76
2023/03/28 07:02:09;;;;;;;1.13;0.60;;;;;;;;;;5035059;28;20025;-75
2023/03/28 07:04:35;;;;;;;1.60;0.90;;;;;;;;;;5033793;28;20021;-75
2023/03/28 07:07:00;;;;;;;0.38;0.35;;;;;;;;;;5033679;28;20074;-75
2023/03/28 07:09:26;;;;;;;0.55;0.40;;;;;;;;;;5034923;28;20094;-76
2023/03/28 07:11:51;;;;;;;1.48;0.52;;;;;;;;;;5033393;28;20385;-76
2023/03/28 07:14:16;;;;;;;0.98;0.52;;;;;;;;;;5035128;28;20054;-75
2023/03/28 07:16:42;;;;;;;13.13;0.30;;;;;;;;;;5033846;28;20389;-77
2023/03/28 07:19:07;;;;;;;0.98;0.50;;;;;;;;;;5034974;28;20025;-75
2023/03/28 07:21:32;;;;;;;0.63;0.47;;;;;;;;;;5034915;28;20037;-75
2023/03/28 07:23:57;;;;;;;2.00;0.90;;;;;;;;;;5033402;28;20026;-76
2023/03/28 07:26:23;;;;;;;2.23;0.77;;;;;;;;;;5034662;28;20032;-75
2023/03/28 07:28:48;;;;;;;11.27;0.93;;;;;;;;;;5034905;28;20254;-75
2023/03/28 07:31:14;;;;;;;1.20;0.43;;;;;;;;;;5033651;28;20017;-78
2023/03/28 07:33:40;;;;;;;0.35;0.25;;;;;;;;;;5035930;28;20028;-75
2023/03/28 07:36:14;;;;;;;1.98;0.73;;;;;;;;;;5034458;28;20022;-76
2023/03/28 07:38:39;;;;;;;2.42;0.90;;;;;;;;;;5034597;28;20052;-76
2023/03/28 07:41:06;;;;;;;0.98;0.77;;;;;;;;;;5033407;28;20107;-76
2023/03/28 07:43:32;;;;;;;0.63;0.50;;;;;;;;;;5034191;28;20026;-76
2023/03/28 07:45:59;;;;;;;2.58;0.98;;;;;;;;;;5035024;28;20041;-76
2023/03/28 07:48:25;;;;;;;0.35;0.35;;;;;;;;;;5034216;28;20039;-76
2023/03/28 07:50:50;;;;;;;4.10;0.93;;;;;;;;;;5032954;28;20030;-76
2023/03/28 07:53:15;;;;;;;0.63;0.57;;;;;;;;;;5034754;28;20108;-79
2023/03/28 07:55:42;;;;;;;2.85;0.80;;;;;;;;;;5040603;28;20415;-78
2023/03/28 07:58:08;;;;;;;1.52;0.70;;;;;;;;;;5039685;28;20025;-78
2023/03/28 08:00:33;;;;;;;1.33;0.57;;;;;;;;;;5038465;28;20047;-78
2023/03/28 08:02:59;;;;;;;0.82;0.50;;;;;;;;;;5036392;28;20028;-78
2023/03/28 08:05:25;;;;;;;0.60;0.40;;;;;;;;;;5035722;28;20029;-78
2023/03/28 08:07:51;;;;;;;1.15;0.50;;;;;;;;;;5035632;28;20072;-78
2023/03/28 08:10:16;;;;;;;0.82;0.40;;;;;;;;;;5036043;28;20660;-78
2023/03/28 08:12:41;;;;;;;2.40;0.60;;;;;;;;;;5035664;28;20026;-78
2023/03/28 08:15:07;;;;;;;1.08;0.77;;;;;;;;;;5035527;28;20029;-78
2023/03/28 08:17:32;;;;;;;1.83;0.73;;;;;;;;;;5035989;28;20531;-78
2023/03/28 08:19:58;;;;;;;1.23;0.70;;;;;;;;;;5035573;28;20028;-78
2023/03/28 08:22:25;;;;;;;2.05;0.80;;;;;;;;;;5036192;28;20061;-78
2023/03/28 08:24:50;;;;;;;3.05;0.75;;;;;;;;;;5034973;28;20420;-78
2023/03/28 08:27:15;;;;;;;0.93;0.57;;;;;;;;;;5034413;28;20043;-78
2023/03/28 08:29:41;;;;;;;1.15;0.25;;;;;;;;;;5033684;28;20021;-77
2023/03/28 08:32:06;;;;;;;2.25;0.95;;;;;;;;;;5034069;28;20021;-77
2023/03/28 08:34:32;;;;;;;0.60;0.52;;;;;;;;;;5034028;28;20389;-78
2023/03/28 08:36:58;;;;;;;6.20;0.98;;;;;;;;;;5032491;28;20107;-75
2023/03/28 08:39:24;;;;;;;1.98;0.80;;;;;;;;;;5033229;28;20021;-76
2023/03/28 08:42:08;;;;;;;0.52;0.35;;;;;;;;;;5033256;28;20507;-75
2023/03/28 08:44:46;;;;;;;2.72;0.82;;;;;;;;;;5033528;28;20503;-75
2023/03/28 08:47:21;;;;;;;0.65;0.40;;;;;;;;;;5033241;28;20436;-74
2023/03/28 08:49:55;;;;;;;0.85;0.60;;;;;;;;;;5033451;28;20056;-75
2023/03/28 08:52:20;;;;;;;0.28;0.28;;;;;;;;;;5031198;28;20102;-73
2023/03/28 08:54:58;;;;;;;1.80;0.70;;;;;;;;;;5032754;28;20025;-76
2023/03/28 08:57:27;;;;;;;2.42;0.63;;;;;;;;;;5032577;28;20100;-75
2023/03/28 09:00:13;;;;;;;0.57;0.40;;;;;;;;;;5032792;28;20025;-75
2023/03/28 09:02:39;;;;;;;1.00;0.70;;;;;;;;;;5031593;28;20584;-76
2023/03/28 09:05:05;;;;;;;0.30;0.30;;;;;;;;;;5032912;28;20049;-75
2023/03/28 09:07:35;;;;;;;0.60;0.60;;;;;;;;;;5032829;28;20112;-75
2023/03/28 09:10:26;;;;;;;0.75;0.40;;;;;;;;;;5032665;28;20025;-75
2023/03/28 09:13:17;;;;;;;2.20;0.77;;;;;;;;;;5033564;28;20055;-75
2023/03/28 09:15:46;;;;;;;1.52;0.73;;;;;;;;;;5033238;28;20044;-74
2023/03/28 09:18:30;;;;;;;0.47;0.35;;;;;;;;;;5031683;28;20053;-74
2023/03/28 09:21:13;;;;;;;1.05;0.52;;;;;;;;;;5033099;28;20021;-76
2023/03/28 09:24:19;;;;;;;1.38;0.70;;;;;;;;;;5033457;28;20108;-74
2023/03/28 09:27:07;;;;;;;0.65;0.43;;;;;;;;;;5033234;28;20068;-75
2023/03/28 09:29:37;;;;;;;1.85;0.35;;;;;;;;;;5031601;28;20033;-75
2023/03/28 09:32:10;;;;;;;1.02;0.47;;;;;;;;;;5033174;28;20021;-75
2023/03/28 09:34:38;;;;;;;0.50;0.17;;;;;;;;;;5033298;28;20033;-75
2023/03/28 09:37:14;;;;;;;0.30;0.30;;;;;;;;;;5035036;28;20033;-73
2023/03/28 09:39:52;;;;;;;1.70;0.60;;;;;;;;;;5036840;28;20025;-74
2023/03/28 09:42:48;;;;;;;0.60;0.50;;;;;;;;;;5036604;28;20104;-74
2023/03/28 09:45:34;;;;;;;0.75;0.30;;;;;;;;;;5036977;28;20105;-73
2023/03/28 09:48:00;;;;;;;0.35;0.32;;;;;;;;;;5036697;28;20026;-74
2023/03/28 09:50:26;;;;;;;0.43;0.30;;;;;;;;;;5036265;28;20041;-73
2023/03/28 09:52:52;;;;;;;1.42;0.77;;;;;;;;;;5036220;28;20025;-74
2023/03/28 09:55:23;;;;;;;0.70;0.40;;;;;;;;;;5036102;28;20033;-72
2023/03/28 09:58:09;;;;;;;0.10;0.10;;;;;;;;;;5036078;28;20033;-73
2023/03/28 10:00:37;;;;;;;0.30;0.30;;;;;;;;;;5036441;28;20025;-73
2023/03/28 10:03:03;;;;;;;0.65;0.40;;;;;;;;;;5034756;28;20025;-73
2023/03/28 10:05:33;;;;;;;2.17;0.47;;;;;;;;;;5035982;28;20025;-73
2023/03/28 10:08:02;;;;;;;2.88;0.20;;;;;;;;;;5036059;28;20029;-73
2023/03/28 10:10:28;;;;;;;0.63;0.30;;;;;;;;;;5036178;28;20025;-73
2023/03/28 10:13:01;;;;;;;0.47;0.40;;;;;;;;;;5035753;28;20029;-73
2023/03/28 10:15:33;;;;;;;4.22;0.60;;;;;;;;;;5036115;28;20040;-73
2023/03/28 10:18:01;;;;;;;0.47;0.30;;;;;;;;;;5034601;28;20120;-73
2023/03/28 10:20:26;;;;;;;0.75;0.50;;;;;;;;;;5035789;28;20036;-74
2023/03/28 10:22:54;;;;;;;2.38;0.50;;;;;;;;;;5035706;28;20025;-74
2023/03/28 10:25:29;;;;;;;0.30;0.22;;;;;;;;;;5035729;28;20040;-73
2023/03/28 10:27:55;;;;;;;0.32;0.10;;;;;;;;;;5035603;28;20388;-73
2023/03/28 10:30:28;;;;;;;1.05;0.50;;;;;;;;;;5035416;28;20032;-74
2023/03/28 10:33:22;;;;;;;0.10;0.10;;;;;;;;;;5035506;28;20040;-73
2023/03/28 10:35:59;;;;;;;0.40;0.30;;;;;;;;;;5035863;28;20105;-74
2023/03/28 10:38:36;;;;;;;0.10;0.10;;;;;;;;;;5034174;28;20061;-74
2023/03/28 10:41:06;;;;;;;0.25;0.25;;;;;;;;;;5034027;28;20037;-74
2023/03/28 10:43:40;;;;;;;1.92;0.30;;;;;;;;;;5033863;28;20026;-73
2023/03/28 10:46:18;;;;;;;0.65;0.30;;;;;;;;;;5034078;28;20068;-73
2023/03/28 10:48:51;;;;;;;0.15;0.10;;;;;;;;;;5033527;28;20582;-73
2023/03/28 10:51:20;;;;;;;;;;;;;;;;;;5035767;28;20031;-74
2023/03/28 10:54:20;;;;;;;1.33;0.28;;;;;;;;;;5035148;28;19909;-74
2023/03/28 10:56:52;;;;;;;0.68;0.35;;;;;;;;;;5035062;28;20465;-74
2023/03/28 10:59:54;;;;;;;0.30;0.10;;;;;;;;;;5035329;28;20069;-74
2023/03/28 11:02:31;;;;;;;0.68;0.28;;;;;;;;;;5034937;28;20026;-75
2023/03/28 11:05:15;;;;;;;0.65;0.22;;;;;;;;;;5035056;28;20455;-74
2023/03/28 11:07:52;;;;;;;0.57;0.20;;;;;;;;;;5033634;28;20032;-74
2023/03/28 11:10:32;;;;;;;0.25;0.25;;;;;;;;;;5035114;28;20080;-73
2023/03/28 11:13:24;;;;;;;1.02;0.47;;;;;;;;;;5035166;28;20108;-74
2023/03/28 11:16:31;;;;;;;0.10;0.10;;;;;;;;;;5034710;28;20099;-73
2023/03/28 11:19:06;;;;;;;1.40;0.57;;;;;;;;;;5031489;28;20531;-73
2023/03/28 11:21:58;;;;;;;0.17;0.17;;;;;;;;;;5034601;28;20480;-74
2023/03/28 11:24:41;;;;;;;0.65;0.40;;;;;;;;;;5034886;28;20040;-74
2023/03/28 11:27:31;;;;;;;0.88;0.45;;;;;;;;;;5033114;28;20075;-74
2023/03/28 11:29:59;;;;;;;2.45;0.60;;;;;;;;;;5034495;28;20061;-75
2023/03/28 11:32:30;;;;;;;0.73;0.35;;;;;;;;;;5034597;28;20018;-74
2023/03/28 11:35:06;;;;;;;1.08;0.43;;;;;;;;;;5033298;28;20460;-74
2023/03/28 11:37:37;;;;;;;1.05;0.52;;;;;;;;;;5034745;28;20025;-74
2023/03/28 11:40:17;;;;;;;0.80;0.60;;;;;;;;;;5034282;28;20025;-74
2023/03/28 11:42:50;;;;;;;1.83;0.60;;;;;;;;;;5034189;28;20026;-75
2023/03/28 11:45:22;;;;;;;0.20;0.13;;;;;;;;;;5034142;28;20057;-73
2023/03/28 11:47:52;;;;;;;0.82;0.45;;;;;;;;;;5034362;28;20025;-74
2023/03/28 11:50:22;;;;;;;0.82;0.43;;;;;;;;;;5033918;28;20127;-73
2023/03/28 11:52:55;;;;;;;0.30;0.30;;;;;;;;;;5032492;28;20108;-74
2023/03/28 11:55:25;;;;;;;0.75;0.40;;;;;;;;;;5031841;28;20029;-73
2023/03/28 11:57:59;;;;;;;0.30;0.30;;;;;;;;;;5032114;28;20520;-73
2023/03/28 12:00:51;;;;;;;0.70;0.40;;;;;;;;;;5031696;28;20025;-75
2023/03/28 12:03:32;;;;;;;0.20;0.10;;;;;;;;;;5033773;28;20021;-73
2023/03/28 12:06:12;;;;;;;0.60;0.45;;;;;;;;;;5034801;28;20377;-74
2023/03/28 12:08:44;;;;;;;1.10;0.50;;;;;;;;;;5032282;28;20064;-74
2023/03/28 12:11:16;;;;;;;2.63;0.30;;;;;;;;;;5033751;28;20036;-74
2023/03/28 12:13:47;;;;;;;1.40;0.60;;;;;;;;;;5032340;28;20392;-73
2023/03/28 12:16:20;;;;;;;1.05;0.50;;;;;;;;;;5033515;28;20033;-73
2023/03/28 12:18:49;;;;;;;3.90;0.57;;;;;;;;;;5034052;28;20033;-76
2023/03/28 12:21:42;;;;;;;0.52;0.32;;;;;;;;;;5033813;28;20254;-73
2023/03/28 12:24:19;;;;;;;1.10;0.40;;;;;;;;;;5034610;28;20030;-75
2023/03/28 12:27:02;;;;;;;1.58;0.50;;;;;;;;;;5033452;28;20033;-76
2023/03/28 12:29:31;;;;;;;0.57;0.40;;;;;;;;;;5033592;28;20022;-77
2023/03/28 12:32:04;;;;;;;0.30;0.30;;;;;;;;;;5033930;28;20097;-76
2023/03/28 12:34:44;;;;;;;1.55;0.60;;;;;;;;;;5033319;28;20091;-76
2023/03/28 12:37:18;;;;;;;1.88;0.60;;;;;;;;;;5033849;28;20109;-76
2023/03/28 12:39:56;;;;;;;1.08;0.70;;;;;;;;;;5031895;28;20033;-76
2023/03/28 12:42:23;;;;;;;2.65;0.50;;;;;;;;;;5031882;28;20026;-76
2023/03/28 12:45:00;;;;;;;2.45;0.60;;;;;;;;;;5033133;28;20028;-76
2023/03/28 12:47:30;;;;;;;1.02;0.60;;;;;;;;;;5033408;28;20060;-76
2023/03/28 12:50:01;;;;;;;2.42;0.70;;;;;;;;;;5032974;28;20021;-77
2023/03/28 12:52:32;;;;;;;0.70;0.50;;;;;;;;;;5033067;28;20426;-77
2023/03/28 12:55:06;;;;;;;0.08;0.08;;;;;;;;;;5033047;28;20044;-77
2023/03/28 12:57:39;;;;;;;0.60;0.30;;;;;;;;;;5031606;28;20048;-78
2023/03/28 13:00:13;;;;;;;1.13;0.38;;;;;;;;;;5032812;28;20037;-76
2023/03/28 13:02:55;;;;;;;2.00;0.45;;;;;;;;;;5033155;28;20148;-76
2023/03/28 13:05:48;;;;;;;0.20;0.10;;;;;;;;;;5032871;28;20032;-75
2023/03/28 13:08:19;;;;;;;0.73;0.47;;;;;;;;;;5032782;28;20025;-76
2023/03/28 13:10:58;;;;;;;1.45;0.65;;;;;;;;;;5033243;28;20021;-76
2023/03/28 13:14:00;;;;;;;1.23;0.68;;;;;;;;;;5033226;28;20099;-75
2023/03/28 13:16:56;;;;;;;1.80;0.60;;;;;;;;;;5032887;28;20025;-76
2023/03/28 13:19:40;;;;;;;0.70;0.50;;;;;;;;;;5031344;28;20488;-76
2023/03/28 13:22:22;;;;;;;0.88;0.70;;;;;;;;;;5031345;28;20032;-77
2023/03/28 13:24:48;;;;;;;1.38;0.57;;;;;;;;;;5032646;28;20381;-76
2023/03/28 13:27:28;;;;;;;0.57;0.52;;;;;;;;;;5032881;28;20024;-77
2023/03/28 13:30:17;;;;;;;2.05;0.70;;;;;;;;;;5032910;28;20025;-77
2023/03/28 13:32:49;;;;;;;2.20;0.80;;;;;;;;;;5029436;28;20037;-76
2023/03/28 13:35:45;;;;;;;1.20;0.70;;;;;;;;;;5032760;28;20022;-76
2023/03/28 13:38:25;;;;;;;0.38;0.38;;;;;;;;;;5033547;28;20036;-76
2023/03/28 13:40:54;;;;;;;0.85;0.55;;;;;;;;;;5032610;28;20035;-76
2023/03/28 13:43:41;;;;;;;0.28;0.28;;;;;;;;;;5032695;28;20022;-77
2023/03/28 13:46:12;;;;;;;1.63;0.57;;;;;;;;;;5033205;28;20492;-75
2023/03/28 13:49:10;;;;;;;1.83;0.85;;;;;;;;;;5032309;28;20075;-75
2023/03/28 13:51:47;;;;;;;1.30;0.57;;;;;;;;;;5032462;28;20025;-75
2023/03/28 13:54:13;;;;;;;3.17;0.77;;;;;;;;;;5032738;28;20026;-75
2023/03/28 13:56:43;;;;;;;1.05;0.65;;;;;;;;;;5032438;28;20033;-74
2023/03/28 13:59:14;;;;;;;4.50;0.80;;;;;;;;;;5032294;28;20060;-75
2023/03/28 14:01:54;;;;;;;1.63;0.70;;;;;;;;;;5030973;28;20029;-75
2023/03/28 14:04:22;;;;;;;1.73;0.90;;;;;;;;;;5032560;28;20497;-75
2023/03/28 14:06:49;;;;;;;1.05;0.50;;;;;;;;;;5032510;28;20029;-75
2023/03/28 14:09:28;;;;;;;1.55;0.75;;;;;;;;;;5032295;28;20049;-74
2023/03/28 14:11:56;;;;;;;2.38;0.75;;;;;;;;;;5032671;28;20033;-77
2023/03/28 14:14:33;;;;;;;0.52;0.43;;;;;;;;;;5032073;28;20488;-75
2023/03/28 14:17:10;;;;;;;1.80;0.82;;;;;;;;;;5030908;28;20032;-75
2023/03/28 14:19:40;;;;;;;1.85;0.80;;;;;;;;;;5032124;28;20025;-75
2023/03/28 14:22:12;;;;;;;6.57;0.90;;;;;;;;;;5031316;28;20025;-74
2023/03/28 14:24:37;;;;;;;2.13;0.75;;;;;;;;;;5035949;28;20029;-74
2023/03/28 14:27:08;;;;;;;1.48;0.73;;;;;;;;;;5034664;28;20032;-75
2023/03/28 14:29:33;;;;;;;3.47;0.90;;;;;;;;;;5034369;28;20060;-75
2023/03/28 14:31:59;;;;;;;3.75;0.70;;;;;;;;;;5035668;28;20076;-74
2023/03/28 14:34:37;;;;;;;0.82;0.55;;;;;;;;;;5035736;28;20100;-75
2023/03/28 14:37:19;;;;;;;3.80;1.00;;;;;;;;;;5034054;28;20018;-75
2023/03/28 14:39:44;;;;;;;1.48;0.50;;;;;;;;;;5034081;28;20117;-74
2023/03/28 14:42:17;;;;;;;1.75;0.80;;;;;;;;;;5035261;28;20100;-75
2023/03/28 14:44:46;;;;;;;5.60;1.10;;;;;;;;;;5035089;28;20037;-75
2023/03/28 14:47:25;;;;;;;0.90;0.60;;;;;;;;;;5035331;28;20488;-75
2023/03/28 14:49:52;;;;;;;5.28;0.70;;;;;;;;;;5035363;28;20110;-75
2023/03/28 14:52:26;;;;;;;0.95;0.70;;;;;;;;;;5035273;28;20064;-75
2023/03/28 14:54:52;;;;;;;1.85;0.70;;;;;;;;;;5035616;28;20025;-75
2023/03/28 14:57:17;;;;;;;2.40;0.82;;;;;;;;;;5035196;28;20032;-75
2023/03/28 14:59:46;;;;;;;0.90;0.68;;;;;;;;;;5035186;28;20049;-75
2023/03/28 15:02:28;;;;;;;1.98;0.75;;;;;;;;;;5035045;28;20401;-75
2023/03/28 15:04:57;;;;;;;1.08;0.70;;;;;;;;;;5035269;28;20495;-75
2023/03/28 15:07:26;;;;;;;2.15;0.88;;;;;;;;;;5033700;28;20034;-75
2023/03/28 15:10:16;;;;;;;2.70;0.73;;;;;;;;;;5034783;28;20403;-75